createdAt,value
2023-01-19T00:01:29.406Z,1.00
2023-01-19T00:03:56.304Z,1.02
2023-01-19T00:06:23.306Z,0.80
2023-01-19T00:08:53.218Z,0.80
2023-01-19T00:11:20.289Z,0.80
2023-01-19T00:13:50.689Z,0.95
2023-01-19T00:16:19.076Z,0.80
2023-01-19T00:18:46.872Z,1.20
2023-01-19T00:21:14.911Z,1.40
2023-01-19T00:23:42.752Z,1.10
2023-01-19T00:26:10.833Z,1.40
2023-01-19T00:28:37.755Z,1.55
2023-01-19T00:31:07.178Z,1.75
2023-01-19T00:33:36.307Z,2.08
2023-01-19T00:36:03.821Z,2.00
2023-01-19T00:38:30.740Z,2.45
2023-01-19T00:40:57.645Z,1.70
2023-01-19T00:43:24.537Z,0.90
2023-01-19T00:45:51.548Z,0.65
2023-01-19T00:48:18.482Z,0.50
2023-01-19T00:50:45.324Z,0.50
2023-01-19T00:53:12.212Z,0.50
2023-01-19T00:55:39.084Z,0.38
2023-01-19T00:58:07.338Z,0.30
2023-01-19T01:00:34.178Z,0.40
2023-01-19T01:03:01.588Z,0.20
2023-01-19T01:05:28.730Z,0.35
2023-01-19T01:07:55.827Z,0.50
2023-01-19T01:10:25.586Z,0.57
2023-01-19T01:13:19.829Z,0.93
2023-01-19T01:15:39.465Z,0.90
2023-01-19T01:18:06.335Z,1.20
2023-01-19T01:20:35.192Z,1.30
2023-01-19T01:23:02.470Z,1.40
2023-01-19T01:25:31.214Z,1.20
2023-01-19T01:27:58.172Z,1.10
2023-01-19T01:30:25.124Z,0.88
2023-01-19T01:32:52.063Z,0.73
2023-01-19T01:35:19.023Z,0.90
2023-01-19T01:37:46.162Z,0.70
2023-01-19T01:40:16.666Z,0.63
2023-01-19T01:42:44.169Z,0.55
2023-01-19T01:45:26.060Z,0.50
2023-01-19T01:47:54.994Z,0.80
2023-01-19T01:50:29.192Z,0.47
2023-01-19T01:53:07.664Z,1.30
2023-01-19T01:55:42.184Z,4.43
2023-01-19T01:58:10.189Z,14.40
2023-01-19T02:00:56.701Z,18.75
2023-01-19T02:03:25.608Z,30.20
2023-01-19T02:05:57.653Z,37.42
2023-01-19T02:08:46.112Z,41.72
2023-01-19T02:11:35.044Z,38.95
2023-01-19T02:14:05.602Z,31.98
2023-01-19T02:16:32.967Z,14.27
2023-01-19T02:19:01.348Z,7.78
2023-01-19T02:21:38.313Z,3.60
2023-01-19T02:24:06.635Z,2.03
2023-01-19T02:26:44.819Z,1.63
2023-01-19T02:29:13.346Z,3.05
2023-01-19T02:31:41.319Z,5.72
2023-01-19T02:34:10.828Z,6.22
2023-01-19T02:36:46.262Z,6.82
2023-01-19T02:39:15.770Z,6.03
2023-01-19T02:41:52.467Z,6.15
2023-01-19T02:44:21.388Z,2.88
2023-01-19T02:46:53.197Z,2.33
2023-01-19T02:49:20.038Z,2.40
2023-01-19T02:51:47.045Z,2.20
2023-01-19T02:54:47.815Z,2.28
2023-01-19T02:57:29.885Z,2.00
2023-01-19T03:00:28.960Z,1.80
2023-01-19T03:03:02.110Z,1.90
2023-01-19T03:05:38.012Z,1.55
2023-01-19T03:08:30.255Z,1.85
2023-01-19T03:11:10.069Z,1.73
2023-01-19T03:13:47.728Z,1.70
2023-01-19T03:16:22.897Z,2.13
2023-01-19T03:18:56.555Z,2.42
2023-01-19T03:21:28.599Z,2.90
2023-01-19T03:24:01.924Z,2.63
2023-01-19T03:26:31.713Z,2.30
2023-01-19T03:29:02.336Z,2.95
2023-01-19T03:31:32.037Z,2.90
2023-01-19T03:34:07.204Z,1.80
2023-01-19T03:36:43.609Z,1.70
2023-01-19T03:39:12.427Z,1.15
2023-01-19T03:41:41.056Z,1.50
2023-01-19T03:44:08.923Z,1.60
2023-01-19T03:46:35.975Z,1.40
2023-01-19T03:49:02.917Z,1.17
2023-01-19T03:51:30.235Z,1.10
2023-01-19T03:53:57.127Z,1.58
2023-01-19T03:56:25.611Z,1.30
2023-01-19T03:58:52.631Z,1.70
2023-01-19T04:01:23.421Z,2.20
2023-01-19T04:03:51.470Z,3.22
2023-01-19T04:06:19.805Z,3.75
2023-01-19T04:08:51.859Z,3.63
2023-01-19T04:11:19.004Z,5.10
2023-01-19T04:13:45.997Z,5.50
2023-01-19T04:16:13.050Z,7.85
2023-01-19T04:18:42.290Z,10.23
2023-01-19T04:21:09.329Z,9.38
2023-01-19T04:23:36.220Z,9.65
2023-01-19T04:26:08.118Z,10.70
2023-01-19T04:28:37.187Z,11.45
2023-01-19T04:31:07.157Z,13.32
2023-01-19T04:33:34.466Z,14.48
2023-01-19T04:36:01.871Z,15.13
2023-01-19T04:38:28.845Z,15.23
2023-01-19T04:40:55.876Z,16.33
2023-01-19T04:43:24.045Z,15.15
2023-01-19T04:45:51.451Z,16.63
2023-01-19T04:48:19.473Z,18.45
2023-01-19T04:50:46.784Z,19.27
2023-01-19T04:53:14.615Z,19.17
2023-01-19T04:55:41.722Z,19.88
2023-01-19T04:58:08.824Z,20.70
2023-01-19T05:00:36.577Z,20.42
2023-01-19T05:03:03.833Z,19.35
2023-01-19T05:05:33.047Z,19.33
2023-01-19T05:08:00.009Z,19.83
2023-01-19T05:10:26.942Z,21.55
2023-01-19T05:12:53.853Z,22.67
2023-01-19T05:15:20.739Z,21.10
2023-01-19T05:17:48.119Z,23.08
2023-01-19T05:20:16.351Z,21.77
2023-01-19T05:22:48.678Z,20.90
2023-01-19T05:25:15.665Z,20.02
2023-01-19T05:27:43.095Z,20.50
2023-01-19T05:30:10.833Z,21.38
2023-01-19T05:32:37.686Z,20.80
2023-01-19T05:35:04.776Z,20.65
2023-01-19T05:37:34.211Z,19.80
2023-01-19T05:40:01.128Z,20.08
2023-01-19T05:42:30.786Z,19.58
2023-01-19T05:44:59.647Z,19.27
2023-01-19T05:47:29.740Z,20.05
2023-01-19T05:49:57.172Z,19.63
2023-01-19T05:52:25.210Z,19.33
2023-01-19T05:54:55.310Z,18.70
2023-01-19T05:57:22.811Z,18.17
2023-01-19T05:59:52.939Z,17.10
2023-01-19T06:02:28.665Z,17.30
2023-01-19T06:04:56.527Z,17.45
2023-01-19T06:07:24.457Z,17.48
2023-01-19T06:09:52.220Z,16.90
2023-01-19T06:12:19.694Z,18.10
2023-01-19T06:14:46.606Z,16.52
2023-01-19T06:17:13.534Z,16.77
2023-01-19T06:19:40.892Z,16.58
2023-01-19T06:22:08.561Z,15.40
2023-01-19T06:24:35.456Z,15.65
2023-01-19T06:27:03.097Z,15.63
2023-01-19T06:29:30.143Z,14.68
2023-01-19T06:31:57.245Z,16.00
2023-01-19T06:34:28.856Z,15.27
2023-01-19T06:36:56.759Z,14.73
2023-01-19T06:39:24.052Z,14.60
2023-01-19T06:41:51.487Z,15.10
2023-01-19T06:44:18.430Z,13.90
2023-01-19T06:46:45.447Z,14.07
2023-01-19T06:49:12.336Z,13.52
2023-01-19T06:51:39.208Z,13.57
2023-01-19T06:54:06.254Z,15.35
2023-01-19T06:56:33.246Z,13.75
2023-01-19T06:59:00.205Z,14.05
2023-01-19T07:01:27.157Z,14.93
2023-01-19T07:03:54.632Z,16.33
2023-01-19T07:06:21.551Z,17.88
2023-01-19T07:08:48.440Z,17.17
2023-01-19T07:11:25.464Z,16.00
2023-01-19T07:13:57.083Z,14.38
2023-01-19T07:16:26.783Z,13.75
2023-01-19T07:18:53.779Z,13.07
2023-01-19T07:21:21.246Z,13.20
2023-01-19T07:23:54.611Z,15.00
2023-01-19T07:26:22.186Z,16.92
2023-01-19T07:28:49.414Z,16.00
2023-01-19T07:31:19.570Z,15.65
2023-01-19T07:33:47.382Z,13.50
2023-01-19T07:36:14.286Z,13.00
2023-01-19T07:38:41.225Z,13.30
2023-01-19T07:41:10.797Z,11.20
2023-01-19T07:43:37.974Z,10.52
2023-01-19T07:46:08.706Z,10.15
2023-01-19T07:48:35.637Z,9.60
2023-01-19T07:51:18.030Z,8.95
2023-01-19T07:53:58.278Z,9.43
2023-01-19T07:56:27.859Z,9.53
2023-01-19T07:58:54.794Z,10.35
2023-01-19T08:01:23.347Z,9.85
2023-01-19T08:03:50.920Z,11.00
2023-01-19T08:06:23.925Z,9.70
2023-01-19T08:08:51.145Z,10.15
2023-01-19T08:11:18.184Z,9.32
2023-01-19T08:13:45.207Z,10.20
2023-01-19T08:16:12.162Z,8.75
2023-01-19T08:18:40.673Z,8.25
2023-01-19T08:21:10.085Z,9.35
2023-01-19T08:23:36.974Z,7.03
2023-01-19T08:26:35.930Z,5.47
2023-01-19T08:29:05.453Z,6.03
2023-01-19T08:31:34.906Z,6.72
2023-01-19T08:34:10.682Z,6.10
2023-01-19T08:36:37.561Z,6.28
2023-01-19T08:39:04.418Z,5.97
2023-01-19T08:41:31.323Z,5.70
2023-01-19T08:43:58.278Z,4.50
2023-01-19T08:46:25.227Z,4.82
2023-01-19T08:48:52.339Z,5.70
2023-01-19T08:51:22.452Z,5.50
2023-01-19T08:53:49.945Z,5.60
2023-01-19T08:56:19.019Z,4.93
2023-01-19T08:58:53.660Z,5.63
2023-01-19T09:01:30.322Z,5.45
2023-01-19T09:03:59.408Z,5.68
2023-01-19T09:06:26.335Z,5.07
2023-01-19T09:08:53.235Z,7.22
2023-01-19T09:11:20.557Z,7.05
2023-01-19T09:13:47.463Z,7.15
2023-01-19T09:16:16.008Z,6.18
2023-01-19T09:18:43.111Z,7.50
2023-01-19T09:21:10.081Z,7.25
2023-01-19T09:23:37.070Z,8.48
2023-01-19T09:26:07.409Z,8.23
2023-01-19T09:28:40.150Z,7.35
2023-01-19T09:31:08.906Z,8.10
2023-01-19T09:33:36.124Z,7.25
2023-01-19T09:36:05.666Z,7.35
2023-01-19T09:38:34.711Z,6.80
2023-01-19T09:41:02.063Z,6.25
2023-01-19T09:43:35.437Z,6.95
2023-01-19T09:46:05.937Z,7.13
2023-01-19T09:48:57.911Z,8.43
2023-01-19T09:51:32.927Z,8.23
2023-01-19T09:54:14.575Z,9.02
2023-01-19T09:56:45.325Z,8.93
2023-01-19T09:59:26.097Z,7.85
2023-01-19T10:02:05.168Z,8.25
2023-01-19T10:04:43.775Z,8.52
2023-01-19T10:07:48.649Z,9.23
2023-01-19T10:10:28.624Z,7.28
2023-01-19T10:13:22.645Z,6.35
2023-01-19T10:16:17.698Z,6.40
2023-01-19T10:18:51.565Z,6.35
2023-01-19T10:21:42.826Z,6.57
2023-01-19T10:24:16.697Z,7.05
2023-01-19T10:26:48.059Z,7.90
2023-01-19T10:29:24.141Z,8.15
2023-01-19T10:31:55.869Z,6.85
2023-01-19T10:34:23.961Z,7.72
2023-01-19T10:37:02.962Z,7.57
2023-01-19T10:39:34.862Z,6.82
2023-01-19T10:42:06.684Z,6.78
2023-01-19T10:44:37.857Z,6.85
2023-01-19T10:49:39.283Z,6.80
2023-01-19T10:52:37.204Z,7.20
2023-01-19T10:55:06.940Z,6.63
2023-01-19T10:57:43.516Z,7.60
2023-01-19T11:00:38.293Z,7.30
2023-01-19T11:03:24.641Z,7.50
2023-01-19T11:05:51.959Z,7.78
2023-01-19T11:08:37.145Z,8.45
2023-01-19T11:11:05.269Z,9.90
2023-01-19T11:13:32.612Z,9.02
2023-01-19T11:16:23.434Z,9.00
2023-01-19T11:18:54.484Z,9.68
2023-01-19T11:24:00.931Z,9.60
2023-01-19T11:26:40.835Z,12.18
2023-01-19T11:29:29.994Z,12.57
2023-01-19T11:32:11.135Z,13.05
2023-01-19T11:37:28.972Z,12.32
2023-01-19T11:40:00.430Z,13.48
2023-01-19T11:42:30.335Z,12.18
2023-01-19T11:45:17.978Z,13.60
2023-01-19T11:47:51.899Z,13.23
2023-01-19T11:50:30.874Z,12.20
2023-01-19T11:53:28.261Z,10.60
2023-01-19T11:56:03.155Z,11.40
2023-01-19T11:58:31.637Z,11.20
2023-01-19T12:01:06.355Z,11.68
2023-01-19T12:04:05.298Z,10.68
2023-01-19T12:06:35.918Z,10.60
2023-01-19T12:09:31.591Z,11.13
2023-01-19T12:12:21.816Z,10.57
2023-01-19T12:15:00.815Z,12.02
2023-01-19T12:17:32.227Z,11.88
2023-01-19T12:20:26.612Z,13.52
2023-01-19T12:23:18.391Z,14.13
2023-01-19T12:26:09.340Z,12.57
2023-01-19T12:28:44.300Z,11.18
2023-01-19T12:31:19.545Z,9.95
2023-01-19T12:33:47.509Z,10.27
2023-01-19T12:36:17.552Z,9.18
2023-01-19T12:39:04.445Z,8.30
2023-01-19T12:41:43.614Z,9.82
2023-01-19T12:44:16.047Z,8.82
2023-01-19T12:46:50.241Z,9.98
2023-01-19T12:49:31.750Z,9.85
2023-01-19T12:52:17.196Z,9.90
2023-01-19T12:54:53.201Z,9.80
2023-01-19T12:57:26.790Z,9.73
2023-01-19T12:59:58.840Z,10.63
2023-01-19T13:02:28.741Z,11.05
2023-01-19T13:05:33.959Z,10.48
2023-01-19T13:08:07.037Z,11.10
2023-01-19T13:11:12.507Z,11.70
2023-01-19T13:13:50.055Z,13.70
2023-01-19T13:16:19.879Z,11.00
2023-01-19T13:18:53.034Z,10.07
2023-01-19T13:21:55.148Z,9.30
2023-01-19T13:24:23.453Z,8.82
2023-01-19T13:26:50.375Z,10.15
2023-01-19T13:29:43.300Z,9.40
2023-01-19T13:32:17.714Z,8.40
2023-01-19T13:34:49.553Z,10.50
2023-01-19T13:37:26.355Z,8.88
2023-01-19T13:39:54.632Z,9.52
2023-01-19T13:42:28.469Z,9.07
2023-01-19T13:45:00.905Z,8.20
2023-01-19T13:47:43.817Z,10.00
2023-01-19T13:50:19.744Z,9.65
2023-01-19T13:52:46.644Z,10.70
2023-01-19T13:55:15.241Z,8.27
2023-01-19T13:57:46.653Z,8.88
2023-01-19T14:00:16.139Z,9.43
2023-01-19T14:02:56.224Z,8.73
2023-01-19T14:05:28.841Z,9.77
2023-01-19T14:08:13.720Z,9.13
2023-01-19T14:10:56.949Z,9.30
2023-01-19T14:13:29.947Z,8.88
2023-01-19T14:15:59.515Z,9.60
2023-01-19T14:18:36.162Z,8.75
2023-01-19T14:21:13.258Z,10.30
2023-01-19T14:23:50.022Z,9.88
2023-01-19T14:26:47.753Z,9.35
2023-01-19T14:29:32.796Z,9.82
2023-01-19T14:32:07.856Z,10.10
2023-01-19T14:35:04.720Z,11.57
2023-01-19T14:37:34.481Z,10.43
2023-01-19T14:40:14.959Z,9.32
2023-01-19T14:42:57.529Z,10.57
2023-01-19T14:45:33.171Z,11.27
2023-01-19T14:48:02.729Z,11.27
2023-01-19T14:50:35.520Z,13.23
2023-01-19T14:53:28.705Z,11.15
2023-01-19T14:56:05.149Z,10.63
2023-01-19T14:58:34.316Z,12.20
2023-01-19T15:01:01.805Z,13.38
2023-01-19T15:03:43.374Z,18.02
2023-01-19T15:06:17.694Z,12.95
2023-01-19T15:08:45.565Z,14.95
2023-01-19T15:11:24.863Z,14.25
2023-01-19T15:13:52.287Z,14.27
2023-01-19T15:16:19.542Z,14.73
2023-01-19T15:18:46.488Z,20.45
2023-01-19T15:21:20.204Z,15.93
2023-01-19T15:23:47.741Z,23.25
2023-01-19T15:26:18.034Z,15.02
2023-01-19T15:28:45.947Z,23.55
2023-01-19T15:31:17.739Z,18.13
2023-01-19T15:33:44.979Z,20.67
2023-01-19T15:36:17.947Z,19.27
2023-01-19T15:38:45.735Z,20.98
2023-01-19T15:41:27.311Z,18.65
2023-01-19T15:43:54.391Z,18.13
2023-01-19T15:46:22.494Z,19.95
2023-01-19T15:48:50.783Z,17.38
2023-01-19T15:51:21.154Z,20.60
2023-01-19T15:53:48.880Z,18.50
2023-01-19T15:56:18.298Z,16.90
2023-01-19T15:58:45.558Z,16.88
2023-01-19T16:01:14.741Z,18.10
2023-01-19T16:03:43.008Z,19.25
2023-01-19T16:06:10.863Z,19.40
2023-01-19T16:08:38.099Z,20.10
2023-01-19T16:11:15.859Z,19.25
2023-01-19T16:13:46.623Z,21.13
2023-01-19T16:16:19.650Z,21.15
2023-01-19T16:18:46.775Z,21.50
2023-01-19T16:21:13.856Z,24.60
2023-01-19T16:23:40.766Z,27.75
2023-01-19T16:26:23.267Z,24.27
2023-01-19T16:28:50.254Z,23.75
2023-01-19T16:31:17.192Z,24.55
2023-01-19T16:33:45.459Z,24.85
2023-01-19T16:36:26.380Z,23.48
2023-01-19T16:38:54.411Z,27.30
2023-01-19T16:41:21.722Z,28.42
2023-01-19T16:43:52.947Z,27.63
2023-01-19T16:46:30.021Z,28.05
2023-01-19T16:49:03.814Z,28.35
2023-01-19T16:51:32.172Z,29.10
2023-01-19T16:53:59.566Z,28.52
2023-01-19T16:56:26.545Z,28.52
2023-01-19T16:58:55.026Z,26.38
2023-01-19T17:01:23.164Z,25.48
2023-01-19T17:03:50.307Z,25.20
2023-01-19T17:06:20.205Z,26.17
2023-01-19T17:08:47.525Z,25.58
2023-01-19T17:11:26.799Z,21.92
2023-01-19T17:13:55.199Z,24.90
2023-01-19T17:16:26.785Z,23.80
2023-01-19T17:18:58.187Z,24.77
2023-01-19T17:21:27.939Z,24.58
2023-01-19T17:23:56.020Z,22.42
2023-01-19T17:26:28.824Z,20.60
2023-01-19T17:29:02.899Z,21.33
2023-01-19T17:31:32.557Z,22.85
2023-01-19T17:34:03.331Z,20.90
2023-01-19T17:36:31.520Z,21.00
2023-01-19T17:39:00.352Z,23.27
2023-01-19T17:41:30.207Z,25.20
2023-01-19T17:43:59.259Z,25.42
2023-01-19T17:46:29.585Z,25.30
2023-01-19T17:48:58.717Z,26.00
2023-01-19T17:51:26.582Z,25.35
2023-01-19T17:53:54.622Z,22.58
2023-01-19T17:56:29.889Z,21.85
2023-01-19T17:58:57.945Z,22.48
2023-01-19T18:01:30.486Z,19.70
2023-01-19T18:03:58.375Z,21.48
2023-01-19T18:06:25.594Z,20.13
2023-01-19T18:08:53.184Z,20.70
2023-01-19T18:11:21.549Z,21.35
2023-01-19T18:13:50.229Z,20.65
2023-01-19T18:16:21.542Z,21.55
2023-01-19T18:18:49.906Z,20.67
2023-01-19T18:21:17.942Z,23.15
2023-01-19T18:23:45.764Z,23.25
2023-01-19T18:26:15.856Z,24.48
2023-01-19T18:28:42.765Z,23.45
2023-01-19T18:31:11.621Z,24.25
2023-01-19T18:33:39.060Z,23.40
2023-01-19T18:36:06.657Z,23.48
2023-01-19T18:38:34.569Z,22.42
2023-01-19T18:41:06.428Z,21.92
2023-01-19T18:43:33.718Z,21.27
2023-01-19T18:46:00.786Z,20.40
2023-01-19T18:48:27.712Z,22.13
2023-01-19T18:50:54.679Z,20.80
2023-01-19T18:53:22.041Z,21.30
2023-01-19T18:55:57.364Z,22.83
2023-01-19T18:58:25.179Z,21.83
2023-01-19T19:00:52.117Z,21.92
2023-01-19T19:03:19.042Z,24.27
2023-01-19T19:05:45.989Z,91.05
2023-01-19T19:08:13.020Z,31.25
2023-01-19T19:10:43.570Z,31.85
2023-01-19T19:13:14.729Z,31.38
2023-01-19T19:15:41.661Z,32.92
2023-01-19T19:18:09.086Z,24.70
2023-01-19T19:20:39.669Z,23.40
2023-01-19T19:23:06.580Z,24.98
2023-01-19T19:25:33.989Z,21.67
2023-01-19T19:28:00.894Z,24.98
2023-01-19T19:30:30.576Z,23.52
2023-01-19T19:32:59.044Z,22.23
2023-01-19T19:35:26.352Z,22.40
2023-01-19T19:37:57.668Z,20.48
2023-01-19T19:40:28.209Z,22.85
2023-01-19T19:42:56.970Z,23.40
2023-01-19T19:45:27.746Z,24.52
2023-01-19T19:47:54.681Z,24.67
2023-01-19T19:50:21.573Z,24.15
2023-01-19T19:52:48.502Z,24.00
2023-01-19T19:55:15.499Z,24.63
2023-01-19T19:57:42.399Z,24.75
2023-01-19T20:00:10.028Z,26.60
2023-01-19T20:02:37.154Z,27.15
2023-01-19T20:05:05.164Z,84.75
2023-01-19T20:07:32.779Z,28.58
2023-01-19T20:10:01.883Z,25.25
2023-01-19T20:12:28.818Z,25.30
2023-01-19T20:14:55.763Z,27.70
2023-01-19T20:17:23.293Z,25.90
2023-01-19T20:19:50.434Z,26.25
2023-01-19T20:22:17.380Z,26.13
2023-01-19T20:24:44.620Z,29.02
2023-01-19T20:27:11.480Z,29.23
2023-01-19T20:29:38.467Z,26.55
2023-01-19T20:32:05.425Z,25.67
2023-01-19T20:34:33.813Z,27.13
2023-01-19T20:37:04.809Z,25.13
2023-01-19T20:42:01.089Z,27.80
2023-01-19T20:44:28.144Z,27.08
2023-01-19T20:46:55.598Z,27.38
2023-01-19T20:49:22.894Z,26.90
2023-01-19T20:51:52.025Z,26.48
2023-01-19T20:54:21.890Z,25.33
2023-01-19T20:56:48.992Z,26.00
2023-01-19T20:59:16.256Z,26.95
2023-01-19T21:01:48.692Z,42.00
2023-01-19T21:04:18.731Z,30.77
2023-01-19T21:06:45.763Z,28.25
2023-01-19T21:09:12.753Z,30.00
2023-01-19T21:11:40.329Z,24.95
2023-01-19T21:14:07.272Z,27.33
2023-01-19T21:16:35.454Z,25.90
2023-01-19T21:19:02.722Z,22.95
2023-01-19T21:21:32.700Z,23.83
2023-01-19T21:24:01.027Z,24.10
2023-01-19T21:26:31.632Z,21.75
2023-01-19T21:28:59.886Z,24.30
2023-01-19T21:31:28.074Z,23.42
2023-01-19T21:33:57.795Z,23.30
2023-01-19T21:36:27.079Z,21.75
2023-01-19T21:39:00.282Z,23.30
2023-01-19T21:41:28.398Z,20.55
2023-01-19T21:43:55.367Z,21.65
2023-01-19T21:46:32.730Z,20.77
2023-01-19T21:49:01.611Z,29.27
2023-01-19T21:51:33.863Z,31.58
2023-01-19T21:54:01.939Z,21.33
2023-01-19T21:56:31.405Z,20.23
2023-01-19T21:59:02.291Z,18.27
2023-01-19T22:03:58.792Z,17.27
2023-01-19T22:06:26.669Z,16.90
2023-01-19T22:08:58.431Z,19.92
2023-01-19T22:11:25.522Z,20.60
2023-01-19T22:13:52.667Z,18.25
2023-01-19T22:16:23.172Z,17.52
2023-01-19T22:18:54.131Z,16.60
2023-01-19T22:21:23.367Z,17.73
2023-01-19T22:23:51.738Z,15.43
2023-01-19T22:26:19.387Z,18.35
2023-01-19T22:28:46.497Z,15.30
2023-01-19T22:31:18.375Z,15.43
2023-01-19T22:33:45.569Z,16.20
2023-01-19T22:36:19.803Z,17.67
2023-01-19T22:39:08.822Z,17.60
2023-01-19T22:41:53.975Z,16.88
2023-01-19T22:44:36.208Z,16.37
2023-01-19T22:47:03.079Z,16.15
2023-01-19T22:49:29.994Z,14.75
2023-01-19T22:51:57.405Z,14.95
2023-01-19T22:54:24.309Z,15.88
2023-01-19T22:56:51.183Z,14.52
2023-01-19T22:59:18.067Z,15.27
2023-01-19T23:01:45.087Z,15.63
2023-01-19T23:04:14.612Z,14.65
2023-01-19T23:06:42.109Z,14.07
2023-01-19T23:09:12.782Z,14.77
2023-01-19T23:11:42.388Z,13.48
2023-01-19T23:14:15.690Z,14.27
2023-01-19T23:16:42.572Z,14.10
2023-01-19T23:19:11.550Z,14.15
2023-01-19T23:21:38.422Z,13.13
2023-01-19T23:24:05.877Z,12.75
2023-01-19T23:26:39.122Z,14.90
2023-01-19T23:29:13.158Z,13.88
2023-01-19T23:31:44.009Z,15.50
2023-01-19T23:36:42.714Z,14.48
2023-01-19T23:39:16.566Z,17.65
2023-01-19T23:41:43.481Z,21.13
2023-01-19T23:44:10.538Z,19.65
2023-01-19T23:46:37.453Z,18.63
2023-01-19T23:49:04.437Z,17.73
2023-01-19T23:51:32.614Z,21.77
2023-01-19T23:54:00.394Z,21.58
2023-01-19T23:56:37.582Z,21.67
2023-01-19T23:59:10.231Z,19.95
